createdAt,value
2019-04-13T00:00:38.799Z,10.17
2019-04-13T00:03:06.281Z,10.13
2019-04-13T00:05:56.265Z,10.27
2019-04-13T00:08:26.030Z,10.20
2019-04-13T00:11:12.918Z,10.43
2019-04-13T00:13:42.933Z,9.73
2019-04-13T00:16:10.171Z,10.37
2019-04-13T00:18:37.857Z,9.80
2019-04-13T00:21:05.325Z,9.30
2019-04-13T00:23:32.816Z,9.67
2019-04-13T00:26:00.335Z,9.17
2019-04-13T00:28:27.931Z,10.47
2019-04-13T00:30:55.383Z,9.97
2019-04-13T00:33:22.854Z,10.10
2019-04-13T00:35:50.299Z,10.20
2019-04-13T00:38:17.691Z,9.90
2019-04-13T00:41:04.658Z,9.70
2019-04-13T00:43:32.126Z,9.33
2019-04-13T00:45:59.810Z,9.60
2019-04-13T00:48:27.460Z,9.57
2019-04-13T00:50:55.226Z,10.00
2019-04-13T00:53:22.871Z,9.93
2019-04-13T00:55:50.315Z,10.17
2019-04-13T00:58:17.944Z,9.93
2019-04-13T01:00:45.740Z,9.37
2019-04-13T01:03:13.396Z,9.80
2019-04-13T01:05:41.394Z,9.87
2019-04-13T01:08:09.056Z,10.17
2019-04-13T01:10:36.839Z,9.90
2019-04-13T01:13:04.429Z,9.17
2019-04-13T01:15:31.970Z,10.07
2019-04-13T01:17:59.516Z,10.03
2019-04-13T01:20:27.406Z,9.87
2019-04-13T01:22:55.142Z,10.80
2019-04-13T01:25:22.867Z,10.17
2019-04-13T01:27:50.564Z,10.43
2019-04-13T01:30:18.238Z,9.47
2019-04-13T01:32:46.200Z,9.97
2019-04-13T01:35:13.919Z,10.00
2019-04-13T01:37:41.519Z,9.93
2019-04-13T01:40:09.699Z,9.50
2019-04-13T01:42:38.159Z,9.80
2019-04-13T01:45:06.059Z,10.90
2019-04-13T01:47:33.727Z,10.47
2019-04-13T01:50:01.311Z,9.83
2019-04-13T01:52:29.186Z,10.03
2019-04-13T01:54:56.858Z,10.20
2019-04-13T01:57:24.582Z,10.33
2019-04-13T01:59:52.115Z,9.87
2019-04-13T02:02:28.332Z,10.50
2019-04-13T02:05:17.619Z,9.50
2019-04-13T02:08:02.201Z,9.50
2019-04-13T02:10:35.831Z,10.73
2019-04-13T02:13:03.230Z,9.97
2019-04-13T02:15:30.797Z,10.57
2019-04-13T02:17:58.360Z,10.47
2019-04-13T02:20:25.938Z,10.77
2019-04-13T02:22:53.509Z,9.80
2019-04-13T02:25:21.404Z,10.67
2019-04-13T02:27:48.921Z,10.30
2019-04-13T02:30:17.113Z,10.47
2019-04-13T02:32:44.707Z,10.53
2019-04-13T02:35:12.268Z,10.20
2019-04-13T02:37:39.692Z,10.10
2019-04-13T02:40:07.419Z,10.07
2019-04-13T02:42:34.995Z,10.27
2019-04-13T02:45:02.789Z,10.07
2019-04-13T02:47:30.345Z,10.20
2019-04-13T02:49:57.907Z,10.53
2019-04-13T02:52:25.442Z,10.57
2019-04-13T02:54:52.885Z,10.23
2019-04-13T02:57:20.443Z,10.30
2019-04-13T02:59:48.097Z,10.37
2019-04-13T03:02:15.589Z,10.73
2019-04-13T03:04:43.691Z,10.37
2019-04-13T03:07:12.115Z,9.83
2019-04-13T03:09:42.591Z,9.93
2019-04-13T03:12:10.137Z,10.33
2019-04-13T03:14:37.651Z,10.03
2019-04-13T03:17:28.936Z,10.17
2019-04-13T03:19:59.941Z,9.73
2019-04-13T03:22:27.587Z,10.27
2019-04-13T03:24:55.124Z,10.23
2019-04-13T03:27:22.759Z,10.47
2019-04-13T03:29:50.370Z,10.23
2019-04-13T03:32:17.808Z,10.93
2019-04-13T03:34:48.637Z,9.50
2019-04-13T03:37:16.118Z,9.90
2019-04-13T03:39:43.810Z,10.70
2019-04-13T03:42:11.306Z,10.80
2019-04-13T03:44:39.132Z,10.00
2019-04-13T03:47:06.764Z,11.10
2019-04-13T03:49:34.240Z,11.00
2019-04-13T03:52:02.048Z,11.63
2019-04-13T03:54:29.822Z,10.27
2019-04-13T03:56:57.569Z,9.93
2019-04-13T03:59:25.158Z,10.30
2019-04-13T04:01:52.940Z,10.00
2019-04-13T04:04:20.349Z,10.67
2019-04-13T04:06:47.988Z,10.50
2019-04-13T04:09:15.472Z,11.33
2019-04-13T04:11:42.992Z,9.93
2019-04-13T04:14:10.496Z,10.57
2019-04-13T04:16:38.088Z,11.30
2019-04-13T04:19:06.292Z,11.43
2019-04-13T04:21:36.406Z,10.47
2019-04-13T04:24:03.961Z,11.47
2019-04-13T04:26:31.739Z,10.83
2019-04-13T04:28:59.542Z,11.13
2019-04-13T04:31:27.080Z,11.43
2019-04-13T04:33:54.612Z,10.87
2019-04-13T04:36:23.970Z,10.97
2019-04-13T04:38:51.454Z,11.50
2019-04-13T04:41:18.968Z,11.07
2019-04-13T04:43:46.451Z,10.87
2019-04-13T04:46:14.131Z,11.13
2019-04-13T04:48:41.601Z,11.17
2019-04-13T04:51:11.240Z,10.73
2019-04-13T04:53:39.265Z,10.90
2019-04-13T04:56:06.856Z,10.53
2019-04-13T04:58:34.609Z,11.13
2019-04-13T05:01:02.172Z,10.90
2019-04-13T05:03:29.757Z,11.30
2019-04-13T05:05:57.242Z,11.23
2019-04-13T05:08:24.808Z,10.17
2019-04-13T05:10:52.439Z,10.97
2019-04-13T05:13:20.088Z,11.57
2019-04-13T05:15:47.843Z,10.10
2019-04-13T05:18:15.455Z,11.57
2019-04-13T05:20:43.093Z,9.87
2019-04-13T05:23:11.085Z,11.63
2019-04-13T05:25:38.680Z,11.30
2019-04-13T05:28:06.380Z,10.70
2019-04-13T05:30:34.158Z,11.47
2019-04-13T05:33:09.030Z,11.60
2019-04-13T05:35:36.750Z,11.30
2019-04-13T05:38:04.664Z,11.90
2019-04-13T05:40:32.696Z,11.77
2019-04-13T05:43:00.374Z,11.47
2019-04-13T05:45:27.925Z,12.10
2019-04-13T05:47:55.659Z,11.97
2019-04-13T05:50:23.417Z,11.60
2019-04-13T05:52:51.107Z,11.57
2019-04-13T05:55:18.773Z,11.93
2019-04-13T05:57:49.563Z,11.90
2019-04-13T06:00:18.293Z,11.97
2019-04-13T06:02:45.953Z,10.40
2019-04-13T06:05:13.565Z,10.73
2019-04-13T06:07:43.874Z,11.73
2019-04-13T06:10:11.692Z,11.70
2019-04-13T06:12:39.331Z,10.73
2019-04-13T06:15:07.997Z,10.97
2019-04-13T06:17:36.024Z,11.87
2019-04-13T06:20:04.519Z,10.97
2019-04-13T06:22:37.891Z,12.20
2019-04-13T06:25:09.422Z,12.60
2019-04-13T06:27:36.534Z,12.47
2019-04-13T06:30:26.941Z,11.03
2019-04-13T06:33:00.688Z,11.37
2019-04-13T06:35:28.948Z,11.50
2019-04-13T06:37:56.527Z,12.73
2019-04-13T06:40:24.058Z,12.77
2019-04-13T06:42:54.517Z,12.27
2019-04-13T06:45:21.324Z,12.13
2019-04-13T06:47:48.924Z,12.07
2019-04-13T06:50:16.479Z,12.63
2019-04-13T06:52:46.599Z,11.83
2019-04-13T06:55:18.504Z,12.27
2019-04-13T06:57:47.494Z,12.10
2019-04-13T07:00:17.802Z,12.23
2019-04-13T07:02:58.964Z,12.53
2019-04-13T07:05:29.582Z,12.63
2019-04-13T07:11:13.848Z,11.43
2019-04-13T07:13:46.983Z,13.10
2019-04-13T07:16:26.524Z,12.63
2019-04-13T07:19:16.694Z,12.97
2019-04-13T07:24:33.598Z,12.90
2019-04-13T07:27:03.729Z,12.93
2019-04-13T07:29:31.306Z,12.83
2019-04-13T07:32:01.384Z,14.03
2019-04-13T07:34:28.607Z,13.40
2019-04-13T07:36:57.674Z,12.57
2019-04-13T07:39:27.298Z,13.00
2019-04-13T07:41:54.890Z,12.30
2019-04-13T07:44:35.342Z,12.33
2019-04-13T07:47:28.668Z,13.07
2019-04-13T07:50:18.544Z,13.07
2019-04-13T07:52:46.300Z,14.87
2019-04-13T07:55:13.793Z,14.70
2019-04-13T07:57:44.759Z,13.17
2019-04-13T08:00:12.546Z,13.20
2019-04-13T08:02:42.008Z,12.67
2019-04-13T08:05:09.806Z,12.93
2019-04-13T08:07:49.102Z,13.90
2019-04-13T08:10:07.132Z,13.93
2019-04-13T08:12:41.358Z,12.90
2019-04-13T08:19:12.308Z,13.90
2019-04-13T08:21:43.553Z,13.17
2019-04-13T08:24:13.429Z,12.37
2019-04-13T08:26:42.230Z,13.03
2019-04-13T08:29:10.304Z,13.27
2019-04-13T08:31:38.417Z,14.07
2019-04-13T08:34:07.151Z,14.90
2019-04-13T08:36:38.890Z,13.30
2019-04-13T08:39:06.655Z,12.80
2019-04-13T08:41:34.572Z,12.30
2019-04-13T08:44:05.903Z,12.10
2019-04-13T08:46:56.803Z,12.60
2019-04-13T08:49:26.571Z,12.77
2019-04-13T08:51:54.577Z,12.83
2019-04-13T08:54:22.365Z,13.87
2019-04-13T08:56:56.650Z,12.97
2019-04-13T08:59:24.955Z,12.43
2019-04-13T09:01:53.046Z,13.10
2019-04-13T09:04:20.764Z,13.50
2019-04-13T09:06:48.536Z,14.27
2019-04-13T09:09:16.960Z,15.43
2019-04-13T09:11:47.515Z,13.53
2019-04-13T09:14:15.901Z,13.63
2019-04-13T09:16:45.029Z,13.73
2019-04-13T09:19:44.109Z,14.07
2019-04-13T09:22:15.063Z,13.20
2019-04-13T09:24:42.884Z,13.57
2019-04-13T09:27:10.628Z,13.50
2019-04-13T09:29:38.911Z,13.23
2019-04-13T09:32:06.867Z,13.10
2019-04-13T09:34:37.048Z,13.57
2019-04-13T09:37:04.631Z,12.50
2019-04-13T09:39:32.173Z,12.60
2019-04-13T09:41:59.972Z,13.00
2019-04-13T09:44:31.224Z,12.83
2019-04-13T09:47:14.852Z,13.10
2019-04-13T09:49:42.572Z,12.50
2019-04-13T09:52:10.179Z,12.70
2019-04-13T09:54:40.763Z,13.17
2019-04-13T09:57:29.347Z,12.03
2019-04-13T09:59:57.887Z,12.37
2019-04-13T10:02:26.140Z,12.87
2019-04-13T10:04:53.943Z,12.93
2019-04-13T10:07:22.012Z,11.73
2019-04-13T10:09:50.302Z,12.33
2019-04-13T10:12:37.272Z,12.90
2019-04-13T10:15:19.436Z,11.90
2019-04-13T10:17:54.505Z,12.70
2019-04-13T10:20:21.654Z,11.33
2019-04-13T10:22:49.583Z,11.67
2019-04-13T10:25:38.425Z,12.23
2019-04-13T10:28:06.511Z,12.17
2019-04-13T10:30:34.151Z,11.47
2019-04-13T10:33:01.909Z,12.33
2019-04-13T10:35:29.438Z,12.43
2019-04-13T10:38:00.135Z,11.90
2019-04-13T10:40:28.102Z,12.23
2019-04-13T10:42:55.816Z,11.47
2019-04-13T10:45:47.612Z,12.47
2019-04-13T10:48:37.635Z,12.90
2019-04-13T10:51:19.754Z,12.33
2019-04-13T10:54:14.901Z,13.63
2019-04-13T10:56:42.727Z,11.60
2019-04-13T10:59:10.615Z,11.47
2019-04-13T11:01:38.143Z,12.30
2019-04-13T11:06:53.038Z,13.33
2019-04-13T11:09:21.938Z,12.83
2019-04-13T11:11:49.766Z,12.93
2019-04-13T11:14:17.253Z,12.73
2019-04-13T11:16:45.134Z,13.73
2019-04-13T11:19:12.704Z,13.50
2019-04-13T11:21:40.444Z,13.07
2019-04-13T11:24:07.935Z,12.60
2019-04-13T11:26:35.495Z,13.67
2019-04-13T11:29:03.203Z,13.80
2019-04-13T11:31:30.845Z,14.40
2019-04-13T11:33:58.354Z,13.80
2019-04-13T11:36:25.770Z,12.57
2019-04-13T11:38:53.254Z,12.53
2019-04-13T11:41:38.909Z,13.77
2019-04-13T11:44:41.043Z,13.67
2019-04-13T11:47:27.000Z,12.30
2019-04-13T11:49:57.638Z,12.97
2019-04-13T11:52:24.014Z,12.17
2019-04-13T11:54:51.635Z,12.37
2019-04-13T11:57:19.733Z,13.67
2019-04-13T11:59:47.820Z,12.60
2019-04-13T12:02:21.214Z,14.20
2019-04-13T12:05:13.855Z,13.20
2019-04-13T12:07:52.270Z,13.00
2019-04-13T12:10:39.368Z,12.70
2019-04-13T12:13:26.645Z,13.27
2019-04-13T12:16:17.915Z,13.10
2019-04-13T12:18:51.521Z,12.97
2019-04-13T12:21:41.945Z,12.87
2019-04-13T12:24:13.833Z,13.10
2019-04-13T12:26:43.349Z,13.33
2019-04-13T12:29:12.740Z,12.83
2019-04-13T12:31:40.713Z,12.93
2019-04-13T12:34:08.495Z,12.87
2019-04-13T12:36:36.353Z,14.20
2019-04-13T12:39:08.561Z,13.73
2019-04-13T12:41:41.984Z,13.07
2019-04-13T12:44:09.574Z,14.63
2019-04-13T12:46:37.162Z,14.27
2019-04-13T12:49:09.418Z,14.20
2019-04-13T12:51:38.504Z,13.27
2019-04-13T12:54:06.273Z,13.43
2019-04-13T12:56:36.348Z,14.50
2019-04-13T12:59:04.078Z,13.47
2019-04-13T13:01:45.507Z,15.43
2019-04-13T13:04:13.455Z,14.30
2019-04-13T13:06:41.044Z,13.70
2019-04-13T13:09:13.547Z,14.43
2019-04-13T13:11:43.414Z,13.83
2019-04-13T13:14:09.612Z,15.23
2019-04-13T13:16:37.156Z,14.00
2019-04-13T13:19:04.850Z,16.60
2019-04-13T13:21:32.660Z,16.13
2019-04-13T13:24:20.408Z,14.80
2019-04-13T13:26:52.025Z,13.87
2019-04-13T13:29:22.213Z,12.93
2019-04-13T13:31:49.054Z,13.90
2019-04-13T13:34:19.563Z,12.47
2019-04-13T13:36:51.414Z,14.93
2019-04-13T13:39:16.626Z,13.20
2019-04-13T13:41:44.504Z,12.77
2019-04-13T13:44:12.431Z,15.23
2019-04-13T13:46:41.970Z,13.90
2019-04-13T13:49:13.343Z,13.73
2019-04-13T13:51:42.840Z,13.23
2019-04-13T13:54:13.124Z,14.53
2019-04-13T13:56:40.624Z,14.47
2019-04-13T13:59:08.557Z,14.27
2019-04-13T14:01:48.916Z,15.17
2019-04-13T14:04:16.499Z,14.53
2019-04-13T14:06:43.910Z,13.33
2019-04-13T14:09:11.461Z,14.33
2019-04-13T14:11:39.019Z,13.97
2019-04-13T14:14:06.897Z,12.80
2019-04-13T14:16:35.399Z,12.97
2019-04-13T14:19:02.921Z,12.40
2019-04-13T14:21:30.710Z,12.80
2019-04-13T14:23:58.236Z,13.63
2019-04-13T14:26:25.822Z,14.00
2019-04-13T14:28:53.409Z,13.33
2019-04-13T14:31:21.118Z,12.77
2019-04-13T14:33:48.783Z,13.37
2019-04-13T14:36:16.405Z,13.10
2019-04-13T14:38:47.624Z,12.57
2019-04-13T14:41:16.113Z,13.23
2019-04-13T14:43:47.549Z,11.93
2019-04-13T14:46:13.309Z,11.97
2019-04-13T14:48:41.592Z,13.00
2019-04-13T14:51:35.735Z,12.23
2019-04-13T14:54:03.553Z,13.07
2019-04-13T14:56:35.317Z,12.80
2019-04-13T14:59:01.377Z,12.70
2019-04-13T15:01:29.228Z,13.47
2019-04-13T15:04:01.653Z,13.63
2019-04-13T15:06:29.392Z,13.60
2019-04-13T15:09:00.594Z,13.23
2019-04-13T15:11:28.029Z,13.43
2019-04-13T15:13:55.804Z,12.40
2019-04-13T15:16:25.167Z,13.37
2019-04-13T15:19:29.212Z,14.03
2019-04-13T15:21:48.294Z,13.40
2019-04-13T15:24:19.323Z,13.50
2019-04-13T15:26:46.164Z,12.70
2019-04-13T15:29:18.934Z,12.60
2019-04-13T15:31:44.741Z,13.80
2019-04-13T15:34:34.886Z,13.17
2019-04-13T15:37:03.608Z,12.20
2019-04-13T15:39:34.967Z,13.77
2019-04-13T15:42:24.247Z,13.80
2019-04-13T15:44:53.983Z,14.00
2019-04-13T15:47:23.906Z,13.80
2019-04-13T15:49:50.533Z,13.13
2019-04-13T15:52:18.092Z,14.40
2019-04-13T15:54:45.607Z,15.60
2019-04-13T15:57:15.796Z,16.83
2019-04-13T15:59:43.672Z,16.23
2019-04-13T16:02:17.283Z,15.47
2019-04-13T16:04:46.135Z,13.97
2019-04-13T16:07:14.510Z,14.63
2019-04-13T16:10:07.418Z,13.27
2019-04-13T16:12:44.871Z,14.30
2019-04-13T16:15:12.753Z,14.70
2019-04-13T16:17:40.334Z,14.83
2019-04-13T16:20:08.262Z,13.77
2019-04-13T16:22:36.503Z,15.20
2019-04-13T16:25:05.736Z,15.20
2019-04-13T16:27:40.161Z,13.60
2019-04-13T16:30:25.837Z,15.80
2019-04-13T16:33:13.129Z,14.37
2019-04-13T16:35:45.516Z,14.63
2019-04-13T16:38:13.403Z,14.67
2019-04-13T16:41:00.861Z,14.07
2019-04-13T16:43:58.082Z,13.47
2019-04-13T16:47:12.140Z,14.20
2019-04-13T16:50:34.685Z,13.77
2019-04-13T16:53:39.438Z,13.13
2019-04-13T16:56:33.775Z,12.37
2019-04-13T16:59:29.093Z,14.97
2019-04-13T17:02:36.007Z,13.60
2019-04-13T17:05:07.260Z,13.53
2019-04-13T17:07:54.885Z,13.70
2019-04-13T17:10:44.201Z,15.63
2019-04-13T17:13:53.299Z,15.10
2019-04-13T17:16:41.928Z,15.13
2019-04-13T17:19:22.460Z,15.17
2019-04-13T17:21:58.781Z,14.43
2019-04-13T17:24:34.970Z,14.47
2019-04-13T17:27:21.539Z,15.77
2019-04-13T17:30:21.754Z,14.03
2019-04-13T17:33:12.969Z,13.07
2019-04-13T17:35:41.002Z,11.17
2019-04-13T17:38:09.169Z,13.47
2019-04-13T17:40:43.499Z,13.40
2019-04-13T17:43:34.299Z,14.13
2019-04-13T17:46:24.901Z,13.50
2019-04-13T17:49:11.407Z,13.63
2019-04-13T17:51:58.264Z,13.07
2019-04-13T17:54:39.524Z,13.97
2019-04-13T17:57:08.467Z,12.90
2019-04-13T17:59:59.302Z,13.17
2019-04-13T18:02:50.693Z,13.20
2019-04-13T18:05:37.885Z,13.43
2019-04-13T18:08:35.708Z,13.83
2019-04-13T18:10:58.952Z,14.53
2019-04-13T18:14:04.684Z,12.87
2019-04-13T18:16:40.078Z,13.80
2019-04-13T18:19:16.923Z,14.20
2019-04-13T18:21:45.296Z,14.57
2019-04-13T18:24:15.510Z,15.40
2019-04-13T18:26:43.777Z,13.90
2019-04-13T18:29:13.112Z,13.67
2019-04-13T18:31:48.222Z,14.30
2019-04-13T18:34:16.148Z,13.37
2019-04-13T18:36:50.680Z,13.07
2019-04-13T18:39:23.360Z,13.53
2019-04-13T18:41:54.820Z,12.43
2019-04-13T18:44:23.745Z,13.80
2019-04-13T18:46:52.770Z,13.37
2019-04-13T18:49:28.276Z,13.20
2019-04-13T18:54:36.400Z,12.50
2019-04-13T18:57:06.950Z,12.83
2019-04-13T18:59:37.987Z,13.90
2019-04-13T19:02:06.148Z,14.90
2019-04-13T19:04:36.304Z,12.00
2019-04-13T19:07:04.013Z,12.93
2019-04-13T19:12:21.384Z,13.00
2019-04-13T19:14:49.133Z,11.70
2019-04-13T19:17:50.114Z,12.00
2019-04-13T19:26:28.424Z,12.33
2019-04-13T19:28:57.184Z,13.60
2019-04-13T19:34:26.790Z,12.30
2019-04-13T19:38:08.523Z,13.00
2019-04-13T19:40:36.727Z,12.47
2019-04-13T19:43:49.212Z,12.47
2019-04-13T19:46:17.413Z,12.23
2019-04-13T19:48:47.823Z,12.50
2019-04-13T19:51:20.506Z,12.50
2019-04-13T19:53:54.626Z,13.53
2019-04-13T19:56:25.966Z,13.60
2019-04-13T19:58:53.922Z,11.63
2019-04-13T20:01:24.258Z,14.10
2019-04-13T20:03:56.056Z,11.87
2019-04-13T20:06:23.675Z,13.13
2019-04-13T20:08:51.754Z,12.43
2019-04-13T20:11:20.865Z,12.83
2019-04-13T20:13:54.974Z,11.97
2019-04-13T20:16:18.910Z,12.53
2019-04-13T20:18:47.263Z,12.53
2019-04-13T20:21:16.417Z,12.43
2019-04-13T20:23:59.885Z,12.53
2019-04-13T20:26:33.954Z,11.90
2019-04-13T20:29:03.568Z,12.27
2019-04-13T20:31:33.534Z,12.83
2019-04-13T20:34:27.116Z,12.97
2019-04-13T20:36:55.261Z,11.90
2019-04-13T20:39:24.435Z,15.30
2019-04-13T20:41:58.488Z,12.50
2019-04-13T20:44:22.230Z,11.47
2019-04-13T20:46:51.679Z,12.87
2019-04-13T20:49:21.564Z,11.73
2019-04-13T20:51:49.560Z,13.17
2019-04-13T20:54:24.113Z,13.07
2019-04-13T20:56:51.703Z,13.03
2019-04-13T20:59:19.285Z,13.00
2019-04-13T21:01:47.443Z,12.90
2019-04-13T21:04:32.659Z,13.17
2019-04-13T21:07:01.048Z,13.17
2019-04-13T21:09:28.733Z,12.43
2019-04-13T21:11:56.796Z,13.13
2019-04-13T21:14:33.532Z,13.30
2019-04-13T21:16:54.005Z,13.43
2019-04-13T21:19:22.161Z,15.27
2019-04-13T21:21:50.120Z,14.30
2019-04-13T21:24:17.737Z,12.97
2019-04-13T21:26:45.719Z,12.77
2019-04-13T21:29:13.530Z,14.63
2019-04-13T21:31:41.076Z,13.07
2019-04-13T21:34:09.308Z,12.87
2019-04-13T21:36:37.018Z,13.40
2019-04-13T21:39:09.088Z,13.70
2019-04-13T21:41:37.024Z,14.20
2019-04-13T21:44:17.849Z,14.47
2019-04-13T21:46:34.946Z,14.50
2019-04-13T21:49:03.276Z,15.13
2019-04-13T21:51:49.230Z,14.77
2019-04-13T21:54:21.376Z,13.83
2019-04-13T21:56:49.458Z,14.57
2019-04-13T21:59:17.306Z,13.17
2019-04-13T22:01:56.328Z,13.57
2019-04-13T22:04:24.101Z,13.00
2019-04-13T22:06:52.308Z,13.73
2019-04-13T22:09:20.026Z,13.87
2019-04-13T22:11:47.643Z,12.93
2019-04-13T22:14:28.288Z,13.97
2019-04-13T22:16:45.724Z,13.90
2019-04-13T22:19:13.766Z,14.27
2019-04-13T22:21:43.617Z,13.60
2019-04-13T22:24:11.413Z,14.17
2019-04-13T22:26:39.298Z,13.07
2019-04-13T22:29:33.348Z,14.70
2019-04-13T22:32:19.183Z,14.00
2019-04-13T22:34:59.918Z,14.23
2019-04-13T22:37:27.792Z,14.23
2019-04-13T22:39:55.510Z,14.30
2019-04-13T22:42:23.203Z,14.20
2019-04-13T22:44:58.084Z,14.10
2019-04-13T22:47:21.786Z,14.10
2019-04-13T22:50:00.856Z,13.23
2019-04-13T22:52:51.646Z,14.33
2019-04-13T22:55:38.488Z,14.13
2019-04-13T22:58:07.260Z,13.33
2019-04-13T23:00:38.761Z,13.23
2019-04-13T23:03:13.600Z,13.67
2019-04-13T23:05:42.121Z,14.77
2019-04-13T23:08:09.939Z,14.37
2019-04-13T23:10:37.614Z,13.07
2019-04-13T23:13:06.137Z,14.30
2019-04-13T23:15:38.703Z,14.07
2019-04-13T23:18:04.424Z,14.30
2019-04-13T23:20:32.108Z,13.77
2019-04-13T23:23:00.631Z,14.33
2019-04-13T23:25:29.059Z,13.53
2019-04-13T23:27:57.147Z,12.93
2019-04-13T23:30:24.977Z,13.70
2019-04-13T23:32:53.153Z,13.40
2019-04-13T23:35:21.350Z,13.47
2019-04-13T23:37:49.632Z,14.17
2019-04-13T23:40:18.137Z,12.00
2019-04-13T23:42:46.229Z,13.37
2019-04-13T23:45:25.101Z,13.63
2019-04-13T23:47:49.071Z,14.37
2019-04-13T23:50:17.692Z,12.77
2019-04-13T23:52:45.803Z,12.67
2019-04-13T23:55:15.951Z,13.77
2019-04-13T23:58:04.000Z,12.97
